createdAt,value
2019-04-11T00:00:15.225Z,4.88
2019-04-11T00:01:14.965Z,4.87
2019-04-11T00:02:14.978Z,4.75
2019-04-11T00:03:15.369Z,4.79
2019-04-11T00:04:15.726Z,4.77
2019-04-11T00:05:14.917Z,4.83
2019-04-11T00:06:15.167Z,4.69
2019-04-11T00:07:14.922Z,4.65
2019-04-11T00:08:14.886Z,4.67
2019-04-11T00:09:14.887Z,4.72
2019-04-11T00:10:14.862Z,4.72
2019-04-11T00:11:14.852Z,4.77
2019-04-11T00:12:14.865Z,4.69
2019-04-11T00:13:23.066Z,4.71
2019-04-11T00:14:15.982Z,4.65
2019-04-11T00:15:14.814Z,4.68
2019-04-11T00:16:15.216Z,4.61
2019-04-11T00:17:14.807Z,4.65
2019-04-11T00:18:14.771Z,4.61
2019-04-11T00:19:15.606Z,4.51
2019-04-11T00:20:15.894Z,4.49
2019-04-11T00:21:14.845Z,4.50
2019-04-11T00:22:14.731Z,4.42
2019-04-11T00:23:14.739Z,4.44
2019-04-11T00:24:14.704Z,4.44
2019-04-11T00:25:15.655Z,4.42
2019-04-11T00:26:15.899Z,4.43
2019-04-11T00:27:14.959Z,4.36
2019-04-11T00:28:15.313Z,4.36
2019-04-11T00:29:14.647Z,4.34
2019-04-11T00:30:15.671Z,4.29
2019-04-11T00:31:14.734Z,4.25
2019-04-11T00:32:14.614Z,4.25
2019-04-11T00:33:14.649Z,4.18
2019-04-11T00:34:15.074Z,4.26
2019-04-11T00:35:15.480Z,4.16
2019-04-11T00:36:14.568Z,4.16
2019-04-11T00:37:14.557Z,4.08
2019-04-11T00:38:14.572Z,4.10
2019-04-11T00:39:15.249Z,4.11
2019-04-11T00:40:15.216Z,4.14
2019-04-11T00:41:15.497Z,4.08
2019-04-11T00:42:14.604Z,4.04
2019-04-11T00:43:26.772Z,4.11
2019-04-11T00:44:16.662Z,4.02
2019-04-11T00:45:15.750Z,4.02
2019-04-11T00:46:14.457Z,4.02
2019-04-11T00:47:15.139Z,4.02
2019-04-11T00:48:14.464Z,3.96
2019-04-11T00:49:14.449Z,3.95
2019-04-11T00:50:14.874Z,4.02
2019-04-11T00:51:14.421Z,3.98
2019-04-11T00:52:14.389Z,4.00
2019-04-11T00:53:14.379Z,3.95
2019-04-11T00:54:14.391Z,4.00
2019-04-11T00:55:15.353Z,3.96
2019-04-11T00:56:14.344Z,4.06
2019-04-11T00:57:14.903Z,4.06
2019-04-11T00:58:14.321Z,3.99
2019-04-11T00:59:14.335Z,4.00
2019-04-11T01:00:15.161Z,4.00
2019-04-11T01:01:14.291Z,4.02
2019-04-11T01:02:15.520Z,3.96
2019-04-11T01:03:14.285Z,3.99
2019-04-11T01:04:14.289Z,3.93
2019-04-11T01:05:15.154Z,3.99
2019-04-11T01:06:14.231Z,3.96
2019-04-11T01:07:14.517Z,3.89
2019-04-11T01:08:14.212Z,3.90
2019-04-11T01:09:14.214Z,3.75
2019-04-11T01:10:14.212Z,3.77
2019-04-11T01:11:14.176Z,3.77
2019-04-11T01:12:14.370Z,3.68
2019-04-11T01:13:14.692Z,3.78
2019-04-11T01:14:15.261Z,3.60
2019-04-11T01:15:15.367Z,3.67
2019-04-11T01:16:14.118Z,3.63
2019-04-11T01:17:14.940Z,3.70
2019-04-11T01:18:14.097Z,3.67
2019-04-11T01:19:14.306Z,3.59
2019-04-11T01:20:15.315Z,3.67
2019-04-11T01:21:14.068Z,3.64
2019-04-11T01:22:14.079Z,3.63
2019-04-11T01:23:15.111Z,3.56
2019-04-11T01:24:14.029Z,3.60
2019-04-11T01:25:14.732Z,3.63
2019-04-11T01:26:14.006Z,3.54
2019-04-11T01:27:14.022Z,3.53
2019-04-11T01:28:14.315Z,3.44
2019-04-11T01:29:13.975Z,3.44
2019-04-11T01:30:13.987Z,3.42
2019-04-11T01:31:13.954Z,3.44
2019-04-11T01:32:14.001Z,3.42
2019-04-11T01:33:13.943Z,3.37
2019-04-11T01:34:13.930Z,3.35
2019-04-11T01:35:15.137Z,3.37
2019-04-11T01:36:15.050Z,3.30
2019-04-11T01:37:13.885Z,3.31
2019-04-11T01:38:14.944Z,3.20
2019-04-11T01:39:13.875Z,3.22
2019-04-11T01:40:13.850Z,3.20
2019-04-11T01:41:14.136Z,3.31
2019-04-11T01:42:13.829Z,3.30
2019-04-11T01:43:13.815Z,3.26
2019-04-11T01:44:14.504Z,3.17
2019-04-11T01:45:13.804Z,3.25
2019-04-11T01:46:14.095Z,3.22
2019-04-11T01:47:14.928Z,3.15
2019-04-11T01:48:13.759Z,3.12
2019-04-11T01:49:14.313Z,3.16
2019-04-11T01:50:13.738Z,3.12
2019-04-11T01:51:13.799Z,3.12
2019-04-11T01:52:13.971Z,3.13
2019-04-11T01:53:13.702Z,3.12
2019-04-11T01:54:13.693Z,3.19
2019-04-11T01:55:14.410Z,3.12
2019-04-11T01:56:14.821Z,3.07
2019-04-11T01:57:13.891Z,2.97
2019-04-11T01:58:14.245Z,2.99
2019-04-11T01:59:13.638Z,2.97
2019-04-11T02:00:13.624Z,2.92
2019-04-11T02:01:14.683Z,2.90
2019-04-11T02:02:13.633Z,2.95
2019-04-11T02:03:13.607Z,2.95
2019-04-11T02:04:14.031Z,2.87
2019-04-11T02:05:13.571Z,2.95
2019-04-11T02:06:13.918Z,2.92
2019-04-11T02:07:14.299Z,2.89
2019-04-11T02:08:13.553Z,2.87
2019-04-11T02:09:13.795Z,2.86
2019-04-11T02:10:14.720Z,2.89
2019-04-11T02:11:13.503Z,2.92
2019-04-11T02:12:14.167Z,2.84
2019-04-11T02:13:13.483Z,2.80
2019-04-11T02:14:16.442Z,2.76
2019-04-11T02:15:14.355Z,2.69
2019-04-11T02:16:13.687Z,2.79
2019-04-11T02:17:14.645Z,2.69
2019-04-11T02:18:13.423Z,2.83
2019-04-11T02:19:14.133Z,2.69
2019-04-11T02:20:14.523Z,2.63
2019-04-11T02:21:13.651Z,2.83
2019-04-11T02:22:13.845Z,2.81
2019-04-11T02:23:13.368Z,2.68
2019-04-11T02:24:13.358Z,2.80
2019-04-11T02:25:14.444Z,2.63
2019-04-11T02:26:13.428Z,2.73
2019-04-11T02:27:13.359Z,2.74
2019-04-11T02:28:13.318Z,2.69
2019-04-11T02:29:13.303Z,2.79
2019-04-11T02:30:14.185Z,2.73
2019-04-11T02:31:13.874Z,2.71
2019-04-11T02:32:13.411Z,2.59
2019-04-11T02:33:14.129Z,2.68
2019-04-11T02:34:14.003Z,2.73
2019-04-11T02:35:13.915Z,2.73
2019-04-11T02:36:13.794Z,2.62
2019-04-11T02:37:13.478Z,2.65
2019-04-11T02:38:14.861Z,2.74
2019-04-11T02:39:17.092Z,2.71
2019-04-11T02:40:15.465Z,2.71
2019-04-11T02:41:14.192Z,2.59
2019-04-11T02:42:14.802Z,2.58
2019-04-11T02:43:14.035Z,2.55
2019-04-11T02:44:30.706Z,2.53
2019-04-11T02:45:27.511Z,2.48
2019-04-11T02:46:23.295Z,2.47
2019-04-11T02:47:18.190Z,2.51
2019-04-11T02:48:14.119Z,2.48
2019-04-11T02:49:14.838Z,2.59
2019-04-11T02:50:17.126Z,2.48
2019-04-11T02:51:14.778Z,2.51
2019-04-11T02:52:13.442Z,2.55
2019-04-11T02:53:14.684Z,2.51
2019-04-11T02:54:13.635Z,2.55
2019-04-11T02:55:14.415Z,2.43
2019-04-11T02:56:13.002Z,2.48
2019-04-11T02:57:14.135Z,2.51
2019-04-11T02:58:14.409Z,2.45
2019-04-11T02:59:13.477Z,2.50
2019-04-11T03:00:13.252Z,2.40
2019-04-11T03:01:13.313Z,2.36
2019-04-11T03:02:16.414Z,2.38
2019-04-11T03:03:13.125Z,2.36
2019-04-11T03:04:12.986Z,2.32
2019-04-11T03:05:13.735Z,2.32
2019-04-11T03:06:12.888Z,2.25
2019-04-11T03:07:14.598Z,2.27
2019-04-11T03:08:17.845Z,2.22
2019-04-11T03:09:15.277Z,2.23
2019-04-11T03:10:14.167Z,2.22
2019-04-11T03:11:14.196Z,2.23
2019-04-11T03:12:13.344Z,2.19
2019-04-11T03:13:13.247Z,2.22
2019-04-11T03:14:14.256Z,2.22
2019-04-11T03:15:28.737Z,2.15
2019-04-11T03:16:27.880Z,2.22
2019-04-11T03:17:20.689Z,2.12
2019-04-11T03:18:33.125Z,2.20
2019-04-11T03:19:29.663Z,2.25
2019-04-11T03:20:24.194Z,2.23
2019-04-11T03:21:20.199Z,2.22
2019-04-11T03:22:14.107Z,2.22
2019-04-11T03:23:16.079Z,2.20
2019-04-11T03:24:15.342Z,2.15
2019-04-11T03:25:13.714Z,2.18
2019-04-11T03:26:14.116Z,2.09
2019-04-11T03:27:12.986Z,2.11
2019-04-11T03:28:18.318Z,2.08
2019-04-11T03:29:13.649Z,2.04
2019-04-11T03:30:19.664Z,2.05
2019-04-11T03:31:50.519Z,2.09
2019-04-11T03:34:03.702Z,2.07
2019-04-11T03:36:07.558Z,2.08
2019-04-11T03:37:37.980Z,2.08
2019-04-11T03:38:38.597Z,2.14
2019-04-11T03:39:32.628Z,2.01
2019-04-11T03:40:30.514Z,2.02
2019-04-11T03:41:27.112Z,2.05
2019-04-11T03:42:29.685Z,2.08
2019-04-11T03:43:26.126Z,2.02
2019-04-11T03:44:21.187Z,1.95
2019-04-11T03:45:32.906Z,1.90
2019-04-11T03:46:29.153Z,1.77
2019-04-11T03:47:27.860Z,1.93
2019-04-11T03:48:29.162Z,1.81
2019-04-11T03:49:24.947Z,1.89
2019-04-11T03:50:17.047Z,1.85
2019-04-11T03:51:14.801Z,1.81
2019-04-11T03:52:12.382Z,1.83
2019-04-11T03:53:12.383Z,1.77
2019-04-11T03:54:13.649Z,1.93
2019-04-11T03:55:13.303Z,1.77
2019-04-11T03:56:13.942Z,1.79
2019-04-11T03:57:13.352Z,1.77
2019-04-11T03:58:13.263Z,1.85
2019-04-11T03:59:14.833Z,1.83
2019-04-11T04:00:14.676Z,1.82
2019-04-11T04:01:13.837Z,1.93
2019-04-11T04:02:13.224Z,1.85
2019-04-11T04:03:13.622Z,1.86
2019-04-11T04:04:13.253Z,1.88
2019-04-11T04:05:13.182Z,1.93
2019-04-11T04:06:12.933Z,1.85
2019-04-11T04:07:13.136Z,2.01
2019-04-11T04:08:13.011Z,1.98
2019-04-11T04:09:13.075Z,2.08
2019-04-11T04:10:13.329Z,2.05
2019-04-11T04:11:12.540Z,2.14
2019-04-11T04:12:13.626Z,2.07
2019-04-11T04:13:16.944Z,2.12
2019-04-11T04:14:14.856Z,2.04
2019-04-11T04:15:29.588Z,2.04
2019-04-11T04:16:22.033Z,1.93
2019-04-11T04:17:14.713Z,2.00
2019-04-11T04:18:12.971Z,1.89
2019-04-11T04:19:15.745Z,1.88
2019-04-11T04:20:12.896Z,1.89
2019-04-11T04:21:13.407Z,1.81
2019-04-11T04:22:13.562Z,1.71
2019-04-11T04:23:13.948Z,1.68
2019-04-11T04:24:12.187Z,1.67
2019-04-11T04:25:12.435Z,1.67
2019-04-11T04:26:12.363Z,1.72
2019-04-11T04:27:13.221Z,1.70
2019-04-11T04:28:13.656Z,1.75
2019-04-11T04:29:12.012Z,1.67
2019-04-11T04:30:13.727Z,1.65
2019-04-11T04:31:11.960Z,1.68
2019-04-11T04:32:12.123Z,1.61
2019-04-11T04:33:13.086Z,1.57
2019-04-11T04:34:11.933Z,1.63
2019-04-11T04:35:15.592Z,1.63
2019-04-11T04:36:13.893Z,1.63
2019-04-11T04:37:12.525Z,1.71
2019-04-11T04:38:13.517Z,1.61
2019-04-11T04:39:12.615Z,1.65
2019-04-11T04:40:26.703Z,1.74
2019-04-11T04:41:22.638Z,1.70
2019-04-11T04:42:23.549Z,1.68
2019-04-11T04:43:14.466Z,1.65
2019-04-11T04:44:12.625Z,1.67
2019-04-11T04:45:13.978Z,1.57
2019-04-11T04:47:21.176Z,1.63
2019-04-11T04:48:16.599Z,1.67
2019-04-11T04:49:13.243Z,1.61
2019-04-11T04:50:13.417Z,1.65
2019-04-11T04:51:13.718Z,1.65
2019-04-11T04:52:14.178Z,1.70
2019-04-11T04:53:13.565Z,1.65
2019-04-11T04:54:12.119Z,1.61
2019-04-11T04:55:12.945Z,1.63
2019-04-11T04:56:13.418Z,1.61
2019-04-11T04:57:13.147Z,1.64
2019-04-11T04:58:12.866Z,1.65
2019-04-11T04:59:12.424Z,1.65
2019-04-11T05:00:13.919Z,1.68
2019-04-11T05:01:12.680Z,1.68
2019-04-11T05:02:12.842Z,1.70
2019-04-11T05:03:11.583Z,1.71
2019-04-11T05:04:13.468Z,1.72
2019-04-11T05:05:13.500Z,1.83
2019-04-11T05:06:11.994Z,1.82
2019-04-11T05:07:11.735Z,1.79
2019-04-11T05:08:11.898Z,1.82
2019-04-11T05:09:12.820Z,1.72
2019-04-11T05:10:11.511Z,1.82
2019-04-11T05:11:11.507Z,1.85
2019-04-11T05:12:11.963Z,1.82
2019-04-11T05:13:11.893Z,1.82
2019-04-11T05:14:12.513Z,1.86
2019-04-11T05:15:12.206Z,1.86
2019-04-11T05:16:17.288Z,1.81
2019-04-11T05:17:12.884Z,1.92
2019-04-11T05:18:11.922Z,1.83
2019-04-11T05:19:11.407Z,1.82
2019-04-11T05:20:11.956Z,1.85
2019-04-11T05:21:11.383Z,1.89
2019-04-11T05:22:12.431Z,1.82
2019-04-11T05:23:11.926Z,1.82
2019-04-11T05:24:12.456Z,1.81
2019-04-11T05:25:12.539Z,1.85
2019-04-11T05:26:11.326Z,1.79
2019-04-11T05:27:12.486Z,1.82
2019-04-11T05:28:12.036Z,1.86
2019-04-11T05:29:11.293Z,1.75
2019-04-11T05:30:11.318Z,1.79
2019-04-11T05:31:11.270Z,1.85
2019-04-11T05:32:11.374Z,1.83
2019-04-11T05:33:11.601Z,1.88
2019-04-11T05:34:11.860Z,1.82
2019-04-11T05:35:11.260Z,1.93
2019-04-11T05:36:12.228Z,1.89
2019-04-11T05:37:11.208Z,1.88
2019-04-11T05:38:11.193Z,1.95
2019-04-11T05:39:11.184Z,2.01
2019-04-11T05:40:11.196Z,2.04
2019-04-11T05:41:12.668Z,2.05
2019-04-11T05:42:11.284Z,2.11
2019-04-11T05:43:11.472Z,2.25
2019-04-11T05:44:11.134Z,2.22
2019-04-11T05:45:15.890Z,2.27
2019-04-11T05:46:26.088Z,2.29
2019-04-11T05:47:18.228Z,2.32
2019-04-11T05:48:12.114Z,2.38
2019-04-11T05:49:11.385Z,2.33
2019-04-11T05:50:13.538Z,2.40
2019-04-11T05:51:11.050Z,2.44
2019-04-11T05:52:12.205Z,2.50
2019-04-11T05:53:11.032Z,2.55
2019-04-11T05:54:12.165Z,2.50
2019-04-11T05:55:13.552Z,2.59
2019-04-11T05:56:11.260Z,2.66
2019-04-11T05:57:11.285Z,2.63
2019-04-11T05:58:13.911Z,2.63
2019-04-11T05:59:14.674Z,2.59
2019-04-11T06:00:11.726Z,2.76
2019-04-11T06:01:12.988Z,2.74
2019-04-11T06:02:11.111Z,2.79
2019-04-11T06:03:10.915Z,2.76
2019-04-11T06:04:15.399Z,2.83
2019-04-11T06:05:13.119Z,2.86
2019-04-11T06:06:10.928Z,2.87
2019-04-11T06:07:11.939Z,2.97
2019-04-11T06:08:12.550Z,2.99
2019-04-11T06:09:14.424Z,3.01
2019-04-11T06:10:12.829Z,3.02
2019-04-11T06:11:14.410Z,3.08
2019-04-11T06:12:11.823Z,3.17
2019-04-11T06:13:12.081Z,3.16
2019-04-11T06:14:11.124Z,3.30
2019-04-11T06:15:11.617Z,3.35
2019-04-11T06:16:10.794Z,3.42
2019-04-11T06:17:11.409Z,3.45
2019-04-11T06:18:17.909Z,3.45
2019-04-11T06:19:12.382Z,3.44
2019-04-11T06:20:11.470Z,3.53
2019-04-11T06:21:11.654Z,3.56
2019-04-11T06:22:10.919Z,3.60
2019-04-11T06:23:10.693Z,3.54
2019-04-11T06:24:11.942Z,3.63
2019-04-11T06:25:11.229Z,3.71
2019-04-11T06:26:10.971Z,3.71
2019-04-11T06:27:11.309Z,3.74
2019-04-11T06:28:11.731Z,3.77
2019-04-11T06:29:17.425Z,3.74
2019-04-11T06:30:12.354Z,3.81
2019-04-11T06:31:10.726Z,3.74
2019-04-11T06:32:11.724Z,3.84
2019-04-11T06:33:10.583Z,3.89
2019-04-11T06:34:11.354Z,3.95
2019-04-11T06:35:11.569Z,3.92
2019-04-11T06:36:11.741Z,3.95
2019-04-11T06:37:11.744Z,3.99
2019-04-11T06:38:10.525Z,4.07
2019-04-11T06:39:11.351Z,4.02
2019-04-11T06:40:11.712Z,4.07
2019-04-11T06:41:10.492Z,4.14
2019-04-11T06:42:10.822Z,4.07
2019-04-11T06:43:10.471Z,4.21
2019-04-11T06:44:10.457Z,4.17
2019-04-11T06:45:11.269Z,4.21
2019-04-11T06:46:11.137Z,4.31
2019-04-11T06:47:10.482Z,4.39
2019-04-11T06:48:11.492Z,4.44
2019-04-11T06:49:10.400Z,4.44
2019-04-11T06:50:11.048Z,4.50
2019-04-11T06:51:11.505Z,4.50
2019-04-11T06:52:10.717Z,4.56
2019-04-11T06:53:11.420Z,4.62
2019-04-11T06:54:10.366Z,4.67
2019-04-11T06:55:10.847Z,4.65
2019-04-11T06:56:10.460Z,4.68
2019-04-11T06:57:10.316Z,4.67
2019-04-11T06:58:10.786Z,4.79
2019-04-11T06:59:10.290Z,4.77
2019-04-11T07:00:10.287Z,4.86
2019-04-11T07:01:10.284Z,4.93
2019-04-11T07:02:16.399Z,4.91
2019-04-11T07:03:19.568Z,4.94
2019-04-11T07:04:11.442Z,5.01
2019-04-11T07:05:10.761Z,5.09
2019-04-11T07:06:11.318Z,5.02
2019-04-11T07:07:11.080Z,5.06
2019-04-11T07:08:10.222Z,5.17
2019-04-11T07:09:10.194Z,5.17
2019-04-11T07:10:10.168Z,5.26
2019-04-11T07:11:10.155Z,5.29
2019-04-11T07:12:10.142Z,5.37
2019-04-11T07:13:10.169Z,5.44
2019-04-11T07:14:10.342Z,5.52
2019-04-11T07:15:10.224Z,5.49
2019-04-11T07:16:11.269Z,5.52
2019-04-11T07:17:11.030Z,5.45
2019-04-11T07:18:10.119Z,5.63
2019-04-11T07:19:11.372Z,5.65
2019-04-11T07:20:10.950Z,5.74
2019-04-11T07:21:10.624Z,5.70
2019-04-11T07:22:10.985Z,5.85
2019-04-11T07:23:10.059Z,5.85
2019-04-11T07:24:10.011Z,5.90
2019-04-11T07:25:10.336Z,6.05
2019-04-11T07:26:10.227Z,5.98
2019-04-11T07:27:09.973Z,6.03
2019-04-11T07:28:10.058Z,6.10
2019-04-11T07:29:09.953Z,6.08
2019-04-11T07:30:09.949Z,6.14
2019-04-11T07:31:10.565Z,6.25
2019-04-11T07:32:09.921Z,6.28
2019-04-11T07:33:11.265Z,6.35
2019-04-11T07:34:10.657Z,6.32
2019-04-11T07:35:10.958Z,6.35
2019-04-11T07:36:10.423Z,6.43
2019-04-11T07:37:10.467Z,6.51
2019-04-11T07:38:09.875Z,6.48
2019-04-11T07:39:09.985Z,6.50
2019-04-11T07:40:09.835Z,6.57
2019-04-11T07:41:09.819Z,6.63
2019-04-11T07:42:11.302Z,6.64
2019-04-11T07:43:13.313Z,6.72
2019-04-11T07:44:09.837Z,6.71
2019-04-11T07:45:11.656Z,6.82
2019-04-11T07:46:09.763Z,6.83
2019-04-11T07:47:17.220Z,6.86
2019-04-11T07:48:10.813Z,6.87
2019-04-11T07:49:10.115Z,6.93
2019-04-11T07:50:10.115Z,6.91
2019-04-11T07:51:10.998Z,6.99
2019-04-11T07:52:09.699Z,6.97
2019-04-11T07:53:10.855Z,6.97
2019-04-11T07:54:09.706Z,7.01
2019-04-11T07:55:09.664Z,7.01
2019-04-11T07:56:09.915Z,7.12
2019-04-11T07:57:10.432Z,7.16
2019-04-11T07:58:11.563Z,7.19
2019-04-11T07:59:10.686Z,7.23
2019-04-11T08:00:09.603Z,7.34
2019-04-11T08:01:10.350Z,7.30
2019-04-11T08:02:10.346Z,7.41
2019-04-11T08:03:09.987Z,7.47
2019-04-11T08:04:10.566Z,7.39
2019-04-11T08:05:09.572Z,7.44
2019-04-11T08:06:09.577Z,7.52
2019-04-11T08:07:09.525Z,7.58
2019-04-11T08:08:09.615Z,7.57
2019-04-11T08:09:09.693Z,7.60
2019-04-11T08:10:10.304Z,7.66
2019-04-11T08:11:09.587Z,7.67
2019-04-11T08:12:09.471Z,7.71
2019-04-11T08:13:10.184Z,7.76
2019-04-11T08:14:10.467Z,7.76
2019-04-11T08:15:09.459Z,7.81
2019-04-11T08:16:10.483Z,7.84
2019-04-11T08:17:09.436Z,7.88
2019-04-11T08:18:10.414Z,7.91
2019-04-11T08:19:09.739Z,7.95
2019-04-11T08:20:09.400Z,8.09
2019-04-11T08:21:10.131Z,8.09
2019-04-11T08:22:10.487Z,8.14
2019-04-11T08:23:09.725Z,8.13
2019-04-11T08:24:10.001Z,8.13
2019-04-11T08:25:09.342Z,8.21
2019-04-11T08:26:09.578Z,8.29
2019-04-11T08:27:09.570Z,8.25
2019-04-11T08:28:12.402Z,8.25
2019-04-11T08:29:13.676Z,8.27
2019-04-11T08:30:10.830Z,8.32
2019-04-11T08:31:09.275Z,8.40
2019-04-11T08:32:09.643Z,8.40
2019-04-11T08:33:09.244Z,8.42
2019-04-11T08:34:09.226Z,8.42
2019-04-11T08:35:10.143Z,8.42
2019-04-11T08:36:09.382Z,8.52
2019-04-11T08:37:09.409Z,8.63
2019-04-11T08:38:10.135Z,8.60
2019-04-11T08:39:09.158Z,8.61
2019-04-11T08:40:09.382Z,8.64
2019-04-11T08:41:09.454Z,8.64
2019-04-11T08:42:09.369Z,8.57
2019-04-11T08:43:09.133Z,8.61
2019-04-11T08:44:09.840Z,8.65
2019-04-11T08:45:09.095Z,8.73
2019-04-11T08:46:09.117Z,8.64
2019-04-11T08:47:09.890Z,8.73
2019-04-11T08:48:09.056Z,8.80
2019-04-11T08:49:09.814Z,8.71
2019-04-11T08:50:10.198Z,8.78
2019-04-11T08:51:09.684Z,8.82
2019-04-11T08:52:09.014Z,8.88
2019-04-11T08:53:08.998Z,8.97
2019-04-11T08:54:09.169Z,8.97
2019-04-11T08:55:08.980Z,9.06
2019-04-11T08:56:08.995Z,9.06
2019-04-11T08:57:10.087Z,9.06
2019-04-11T08:58:08.944Z,9.03
2019-04-11T08:59:09.135Z,9.13
2019-04-11T09:00:10.216Z,9.16
2019-04-11T09:01:08.921Z,9.20
2019-04-11T09:02:08.925Z,9.20
2019-04-11T09:03:09.206Z,9.17
2019-04-11T09:04:11.842Z,9.23
2019-04-11T09:05:13.730Z,9.31
2019-04-11T09:06:09.855Z,9.31
2019-04-11T09:07:10.214Z,9.30
2019-04-11T09:08:09.954Z,9.37
2019-04-11T09:09:09.170Z,9.44
2019-04-11T09:10:09.532Z,9.50
2019-04-11T09:11:08.804Z,9.48
2019-04-11T09:12:10.018Z,9.37
2019-04-11T09:13:09.044Z,9.52
2019-04-11T09:14:08.773Z,9.56
2019-04-11T09:15:08.750Z,9.52
2019-04-11T09:16:09.689Z,9.63
2019-04-11T09:17:08.764Z,9.60
2019-04-11T09:18:11.850Z,9.60
2019-04-11T09:19:08.706Z,9.70
2019-04-11T09:20:09.498Z,9.59
2019-04-11T09:21:09.792Z,9.65
2019-04-11T09:22:08.898Z,9.67
2019-04-11T09:23:09.337Z,9.63
2019-04-11T09:24:08.653Z,9.58
2019-04-11T09:25:08.659Z,9.58
2019-04-11T09:26:09.743Z,9.56
2019-04-11T09:27:08.794Z,9.60
2019-04-11T09:28:09.163Z,9.65
2019-04-11T09:29:08.601Z,9.67
2019-04-11T09:30:12.753Z,9.73
2019-04-11T09:31:10.654Z,9.70
2019-04-11T09:32:09.738Z,9.48
2019-04-11T09:33:08.822Z,9.55
2019-04-11T09:34:09.178Z,9.55
2019-04-11T09:35:08.529Z,9.50
2019-04-11T09:36:08.515Z,9.52
2019-04-11T09:37:09.448Z,9.55
2019-04-11T09:38:08.548Z,9.48
2019-04-11T09:39:08.639Z,9.52
2019-04-11T09:40:09.831Z,9.52
2019-04-11T09:41:08.457Z,9.58
2019-04-11T09:42:09.971Z,9.67
2019-04-11T09:43:09.376Z,9.77
2019-04-11T09:44:08.552Z,9.77
2019-04-11T09:45:08.938Z,9.75
2019-04-11T09:46:08.405Z,9.91
2019-04-11T09:47:08.391Z,10.02
2019-04-11T09:48:14.787Z,9.92
2019-04-11T09:49:10.589Z,10.07
2019-04-11T09:50:08.357Z,10.31
2019-04-11T09:51:09.381Z,10.35
2019-04-11T09:52:08.802Z,10.28
2019-04-11T09:53:08.357Z,10.34
2019-04-11T09:54:08.724Z,10.39
2019-04-11T09:55:08.553Z,10.44
2019-04-11T09:56:08.890Z,10.35
2019-04-11T09:57:08.293Z,10.35
2019-04-11T09:58:08.984Z,10.39
2019-04-11T09:59:08.717Z,10.36
2019-04-11T10:00:08.253Z,10.46
2019-04-11T10:01:08.231Z,10.54
2019-04-11T10:02:08.222Z,10.62
2019-04-11T10:03:08.719Z,10.69
2019-04-11T10:04:08.834Z,10.78
2019-04-11T10:05:09.495Z,10.98
2019-04-11T10:06:09.343Z,11.01
2019-04-11T10:07:08.963Z,11.01
2019-04-11T10:08:08.593Z,11.12
2019-04-11T10:09:08.141Z,11.23
2019-04-11T10:10:08.666Z,11.30
2019-04-11T10:11:08.128Z,11.36
2019-04-11T10:12:08.109Z,11.41
2019-04-11T10:13:08.841Z,11.51
2019-04-11T10:14:09.284Z,11.53
2019-04-11T10:15:09.364Z,11.62
2019-04-11T10:16:08.074Z,11.48
2019-04-11T10:17:08.714Z,11.60
2019-04-11T10:18:19.544Z,11.70
2019-04-11T10:19:09.030Z,11.79
2019-04-11T10:20:08.692Z,11.72
2019-04-11T10:21:08.993Z,11.64
2019-04-11T10:22:08.956Z,11.67
2019-04-11T10:23:08.272Z,11.78
2019-04-11T10:24:09.362Z,11.88
2019-04-11T10:25:07.963Z,11.87
2019-04-11T10:26:07.950Z,11.96
2019-04-11T10:27:08.810Z,12.04
2019-04-11T10:28:09.101Z,12.15
2019-04-11T10:29:08.672Z,12.16
2019-04-11T10:30:08.650Z,12.31
2019-04-11T10:31:08.530Z,12.36
2019-04-11T10:32:08.711Z,12.51
2019-04-11T10:33:08.786Z,12.37
2019-04-11T10:34:09.085Z,12.44
2019-04-11T10:35:08.208Z,12.54
2019-04-11T10:36:07.838Z,12.51
2019-04-11T10:37:07.832Z,12.62
2019-04-11T10:38:08.522Z,12.66
2019-04-11T10:39:08.950Z,12.62
2019-04-11T10:40:08.100Z,12.56
2019-04-11T10:41:08.317Z,12.80
2019-04-11T10:42:08.506Z,12.77
2019-04-11T10:43:07.835Z,12.87
2019-04-11T10:44:07.777Z,12.81
2019-04-11T10:45:07.741Z,12.84
2019-04-11T10:46:07.724Z,12.85
2019-04-11T10:47:09.623Z,12.96
2019-04-11T10:48:07.705Z,12.88
2019-04-11T10:49:07.731Z,13.04
2019-04-11T10:50:07.681Z,13.09
2019-04-11T10:51:08.757Z,13.07
2019-04-11T10:52:07.672Z,13.31
2019-04-11T10:53:08.867Z,13.22
2019-04-11T10:54:08.542Z,13.44
2019-04-11T10:55:07.650Z,13.62
2019-04-11T10:56:08.475Z,13.63
2019-04-11T10:57:07.642Z,13.48
2019-04-11T10:58:08.710Z,13.59
2019-04-11T10:59:07.576Z,13.69
2019-04-11T11:00:07.588Z,13.69
2019-04-11T11:01:07.635Z,13.61
2019-04-11T11:02:08.614Z,13.63
2019-04-11T11:03:07.536Z,13.55
2019-04-11T11:04:07.520Z,13.71
2019-04-11T11:05:07.542Z,13.73
2019-04-11T11:06:07.505Z,13.79
2019-04-11T11:07:08.521Z,14.01
2019-04-11T11:08:07.474Z,14.17
2019-04-11T11:09:08.003Z,14.29
2019-04-11T11:10:07.485Z,14.41
2019-04-11T11:11:08.147Z,14.53
2019-04-11T11:12:08.467Z,14.60
2019-04-11T11:13:07.809Z,14.61
2019-04-11T11:14:07.405Z,14.64
2019-04-11T11:15:07.435Z,14.86
2019-04-11T11:16:08.685Z,14.78
2019-04-11T11:17:07.546Z,14.63
2019-04-11T11:18:35.073Z,14.57
2019-04-11T11:19:33.741Z,14.56
2019-04-11T11:20:16.401Z,14.64
2019-04-11T11:21:09.357Z,14.71
2019-04-11T11:22:08.343Z,14.72
2019-04-11T11:23:10.180Z,14.79
2019-04-11T11:24:09.238Z,14.80
2019-04-11T11:25:11.633Z,14.80
2019-04-11T11:26:09.054Z,14.91
2019-04-11T11:27:07.413Z,14.98
2019-04-11T11:28:07.522Z,15.01
2019-04-11T11:29:13.114Z,15.04
2019-04-11T11:30:08.301Z,15.01
2019-04-11T11:31:07.504Z,15.15
2019-04-11T11:32:07.215Z,15.22
2019-04-11T11:33:07.900Z,15.34
2019-04-11T11:34:07.250Z,15.37
2019-04-11T11:35:07.398Z,15.31
2019-04-11T11:36:10.064Z,15.40
2019-04-11T11:37:07.149Z,15.33
2019-04-11T11:38:07.152Z,15.30
2019-04-11T11:39:07.124Z,15.51
2019-04-11T11:40:11.859Z,15.64
2019-04-11T11:41:08.125Z,15.56
2019-04-11T11:42:08.193Z,15.12
2019-04-11T11:43:07.077Z,14.91
2019-04-11T11:44:07.656Z,15.03
2019-04-11T11:45:07.056Z,15.16
2019-04-11T11:46:07.065Z,15.35
2019-04-11T11:47:07.977Z,15.40
2019-04-11T11:48:13.713Z,15.62
2019-04-11T11:49:08.063Z,15.78
2019-04-11T11:50:10.505Z,15.85
2019-04-11T11:51:08.922Z,15.98
2019-04-11T11:52:07.016Z,15.84
2019-04-11T11:53:11.264Z,15.89
2019-04-11T11:54:08.125Z,15.88
2019-04-11T11:55:08.201Z,15.84
2019-04-11T11:56:07.551Z,15.80
2019-04-11T11:57:06.950Z,15.98
2019-04-11T11:58:06.978Z,15.78
2019-04-11T11:59:07.046Z,15.55
2019-04-11T12:00:07.161Z,15.58
2019-04-11T12:01:09.416Z,15.68
2019-04-11T12:02:06.894Z,15.77
2019-04-11T12:03:06.851Z,15.81
2019-04-11T12:04:06.841Z,15.73
2019-04-11T12:05:12.470Z,15.86
2019-04-11T12:06:09.537Z,15.92
2019-04-11T12:07:07.161Z,15.99
2019-04-11T12:08:11.614Z,15.95
2019-04-11T12:09:07.785Z,15.84
2019-04-11T12:10:06.938Z,15.71
2019-04-11T12:11:08.002Z,15.77
2019-04-11T12:12:06.754Z,15.80
2019-04-11T12:13:10.877Z,15.89
2019-04-11T12:14:07.646Z,15.85
2019-04-11T12:15:07.720Z,15.99
2019-04-11T12:16:07.801Z,16.03
2019-04-11T12:17:06.897Z,16.14
2019-04-11T12:18:07.457Z,16.18
2019-04-11T12:19:06.810Z,16.25
2019-04-11T12:20:11.671Z,16.37
2019-04-11T12:21:07.647Z,16.41
2019-04-11T12:22:06.638Z,16.54
2019-04-11T12:23:06.729Z,16.72
2019-04-11T12:24:08.149Z,16.81
2019-04-11T12:25:07.147Z,16.73
2019-04-11T12:26:06.596Z,16.73
2019-04-11T12:27:06.581Z,16.57
2019-04-11T12:28:11.928Z,16.57
2019-04-11T12:29:08.284Z,16.42
2019-04-11T12:30:08.714Z,16.27
2019-04-11T12:31:07.127Z,16.42
2019-04-11T12:32:06.531Z,16.52
2019-04-11T12:33:06.602Z,16.66
2019-04-11T12:34:06.525Z,16.75
2019-04-11T12:35:06.506Z,16.84
2019-04-11T12:36:06.500Z,17.06
2019-04-11T12:37:06.532Z,16.88
2019-04-11T12:38:06.458Z,16.85
2019-04-11T12:39:06.473Z,16.72
2019-04-11T12:40:06.446Z,16.60
2019-04-11T12:41:06.437Z,16.72
2019-04-11T12:42:06.413Z,16.75
2019-04-11T12:43:06.403Z,16.69
2019-04-11T12:44:06.419Z,16.72
2019-04-11T12:45:06.662Z,16.81
2019-04-11T12:46:06.366Z,16.78
2019-04-11T12:47:07.830Z,16.91
2019-04-11T12:48:06.346Z,17.09
2019-04-11T12:49:06.359Z,17.14
2019-04-11T12:50:06.323Z,16.87
2019-04-11T12:51:06.313Z,16.82
2019-04-11T12:52:06.300Z,16.81
2019-04-11T12:53:06.317Z,16.80
2019-04-11T12:54:06.317Z,16.70
2019-04-11T12:55:06.267Z,16.69
2019-04-11T12:56:06.256Z,16.80
2019-04-11T12:57:06.246Z,16.82
2019-04-11T12:58:06.232Z,17.00
2019-04-11T12:59:06.229Z,17.10
2019-04-11T13:00:06.236Z,17.07
2019-04-11T13:01:06.201Z,17.07
2019-04-11T13:02:06.186Z,17.03
2019-04-11T13:03:06.177Z,16.96
2019-04-11T13:04:06.168Z,16.80
2019-04-11T13:05:06.192Z,16.70
2019-04-11T13:06:06.158Z,16.60
2019-04-11T13:07:06.132Z,16.62
2019-04-11T13:08:06.120Z,16.57
2019-04-11T13:09:06.124Z,16.55
2019-04-11T13:10:06.124Z,16.36
2019-04-11T13:11:06.086Z,16.36
2019-04-11T13:12:06.091Z,16.30
2019-04-11T13:13:06.064Z,16.41
2019-04-11T13:14:06.054Z,16.65
2019-04-11T13:15:06.065Z,16.75